createdAt,value
2018-07-17T00:01:20.587Z,18.18
2018-07-17T00:04:44.945Z,18.17
2018-07-17T00:08:09.639Z,17.91
2018-07-17T00:11:34.282Z,17.47
2018-07-17T00:14:58.936Z,17.86
2018-07-17T00:18:23.571Z,18.20
2018-07-17T00:21:48.207Z,18.17
2018-07-17T00:25:12.858Z,18.15
2018-07-17T00:28:37.510Z,17.89
2018-07-17T00:32:01.825Z,17.83
2018-07-17T00:35:26.448Z,18.35
2018-07-17T00:38:51.084Z,17.97
2018-07-17T00:42:15.740Z,17.91
2018-07-17T00:45:40.444Z,17.80
2018-07-17T00:49:05.140Z,17.58
2018-07-17T00:52:29.794Z,17.72
2018-07-17T00:55:54.420Z,17.98
2018-07-17T00:59:19.128Z,18.08
2018-07-17T01:02:49.141Z,17.87
2018-07-17T01:06:18.646Z,17.83
2018-07-17T01:09:48.573Z,17.82
2018-07-17T01:13:19.493Z,17.64
2018-07-17T01:16:44.177Z,17.66
2018-07-17T01:20:08.805Z,17.22
2018-07-17T01:23:33.448Z,17.26
2018-07-17T01:26:58.158Z,17.15
2018-07-17T01:30:22.825Z,16.99
2018-07-17T01:33:47.466Z,17.21
2018-07-17T01:37:12.078Z,17.44
2018-07-17T01:40:36.748Z,17.30
2018-07-17T01:44:01.410Z,17.40
2018-07-17T01:47:26.066Z,17.15
2018-07-17T01:50:50.754Z,17.56
2018-07-17T01:54:15.366Z,17.63
2018-07-17T01:57:40.047Z,17.47
2018-07-17T02:01:04.689Z,17.27
2018-07-17T02:04:28.982Z,17.11
2018-07-17T02:07:53.624Z,17.09
2018-07-17T02:11:18.246Z,17.44
2018-07-17T02:14:42.907Z,17.08
2018-07-17T02:18:07.544Z,17.01
2018-07-17T02:21:32.200Z,16.90
2018-07-17T02:24:56.834Z,16.78
2018-07-17T02:28:21.424Z,16.78
2018-07-17T02:31:46.060Z,16.65
2018-07-17T02:35:10.731Z,16.66
2018-07-17T02:38:35.486Z,16.62
2018-07-17T02:42:00.140Z,16.25
2018-07-17T02:45:24.780Z,16.33
2018-07-17T02:48:49.424Z,16.69
2018-07-17T02:52:14.018Z,16.24
2018-07-17T02:55:38.684Z,16.28
2018-07-17T02:59:03.301Z,16.64
2018-07-17T03:02:27.900Z,16.43
2018-07-17T03:05:52.562Z,16.77
2018-07-17T03:09:17.195Z,16.42
2018-07-17T03:12:41.821Z,16.37
2018-07-17T03:16:06.457Z,16.55
2018-07-17T03:19:31.122Z,16.61
2018-07-17T03:22:55.745Z,16.56
2018-07-17T03:26:20.383Z,16.52
2018-07-17T03:29:45.059Z,16.51
2018-07-17T03:33:09.824Z,16.60
2018-07-17T03:36:34.184Z,16.39
2018-07-17T03:39:58.780Z,16.47
2018-07-17T03:43:23.432Z,16.61
2018-07-17T03:46:48.080Z,16.57
2018-07-17T03:50:12.708Z,16.44
2018-07-17T03:53:37.405Z,16.54
2018-07-17T03:57:02.069Z,16.94
2018-07-17T04:00:26.712Z,16.59
2018-07-17T04:03:51.390Z,16.39
2018-07-17T04:07:16.065Z,16.54
2018-07-17T04:10:40.704Z,16.65
2018-07-17T04:14:05.730Z,16.56
2018-07-17T04:17:30.360Z,16.38
2018-07-17T04:20:55.012Z,16.43
2018-07-17T04:24:20.188Z,16.80
2018-07-17T04:27:44.825Z,16.93
2018-07-17T04:31:09.488Z,17.35
2018-07-17T04:34:34.190Z,16.90
2018-07-17T04:37:58.569Z,16.78
2018-07-17T04:41:23.282Z,17.27
2018-07-17T04:44:47.931Z,17.39
2018-07-17T04:48:12.587Z,16.97
2018-07-17T04:51:37.267Z,16.70
2018-07-17T04:55:01.943Z,17.12
2018-07-17T04:58:26.660Z,16.87
2018-07-17T05:01:51.441Z,16.89
2018-07-17T05:05:16.185Z,17.14
2018-07-17T05:08:40.855Z,17.02
2018-07-17T05:12:05.156Z,16.94
2018-07-17T05:15:29.481Z,17.02
2018-07-17T05:18:54.160Z,17.02
2018-07-17T05:22:18.821Z,17.17
2018-07-17T05:25:43.543Z,17.57
2018-07-17T05:29:08.165Z,17.50
2018-07-17T05:32:32.807Z,17.60
2018-07-17T05:35:57.475Z,17.47
2018-07-17T05:39:22.177Z,17.77
2018-07-17T05:42:46.518Z,17.60
2018-07-17T05:46:11.174Z,18.15
2018-07-17T05:49:35.881Z,18.23
2018-07-17T05:53:00.546Z,18.28
2018-07-17T05:56:25.148Z,18.49
2018-07-17T05:59:49.823Z,18.55
2018-07-17T06:03:14.495Z,18.58
2018-07-17T06:06:39.164Z,18.92
2018-07-17T06:10:03.931Z,18.84
2018-07-17T06:13:29.590Z,18.91
2018-07-17T06:16:54.257Z,19.34
2018-07-17T06:20:18.903Z,19.20
2018-07-17T06:23:43.655Z,19.44
2018-07-17T06:27:08.846Z,19.57
2018-07-17T06:30:33.548Z,19.66
2018-07-17T06:33:58.195Z,20.13
2018-07-17T06:37:22.875Z,20.13
2018-07-17T06:40:47.545Z,20.06
2018-07-17T06:44:12.203Z,20.24
2018-07-17T06:47:36.835Z,20.47
2018-07-17T06:51:01.608Z,20.62
2018-07-17T06:54:26.881Z,20.79
2018-07-17T06:57:51.668Z,21.11
2018-07-17T07:01:16.017Z,21.50
2018-07-17T07:04:40.651Z,21.40
2018-07-17T07:08:05.401Z,21.49
2018-07-17T07:11:29.763Z,21.86
2018-07-17T07:14:54.544Z,22.04
2018-07-17T07:18:19.222Z,22.08
2018-07-17T07:21:44.245Z,21.83
2018-07-17T07:25:08.927Z,22.07
2018-07-17T07:28:33.576Z,21.93
2018-07-17T07:31:58.283Z,22.16
2018-07-17T07:35:23.966Z,22.29
2018-07-17T07:38:48.750Z,22.17
2018-07-17T07:42:13.467Z,22.19
2018-07-17T07:45:38.118Z,22.12
2018-07-17T07:49:02.742Z,22.00
2018-07-17T07:52:27.377Z,21.92
2018-07-17T07:55:52.029Z,21.72
2018-07-17T07:59:16.747Z,22.23
2018-07-17T08:02:41.433Z,22.35
2018-07-17T08:06:06.111Z,22.20
2018-07-17T08:09:30.771Z,22.51
2018-07-17T08:12:55.458Z,22.76
2018-07-17T08:16:20.110Z,23.07
2018-07-17T08:19:44.709Z,23.17
2018-07-17T08:23:09.373Z,23.07
2018-07-17T08:26:34.059Z,23.21
2018-07-17T08:29:58.665Z,23.34
2018-07-17T08:33:23.626Z,23.41
2018-07-17T08:36:48.268Z,23.59
2018-07-17T08:40:12.970Z,23.59
2018-07-17T08:43:37.933Z,23.87
2018-07-17T08:47:02.742Z,24.03
2018-07-17T08:50:27.480Z,23.68
2018-07-17T08:53:51.856Z,24.02
2018-07-17T08:57:16.600Z,24.25
2018-07-17T09:00:42.521Z,24.33
2018-07-17T09:04:07.325Z,24.34
2018-07-17T09:07:32.219Z,24.35
2018-07-17T09:10:56.961Z,24.22
2018-07-17T09:14:21.294Z,24.60
2018-07-17T09:17:46.001Z,24.60
2018-07-17T09:21:10.797Z,24.85
2018-07-17T09:24:35.135Z,25.19
2018-07-17T09:27:59.749Z,24.39
2018-07-17T09:31:24.415Z,24.77
2018-07-17T09:34:50.413Z,24.95
2018-07-17T09:38:15.091Z,25.08
2018-07-17T09:41:39.857Z,25.17
2018-07-17T09:45:04.844Z,25.48
2018-07-17T09:48:29.626Z,25.42
2018-07-17T09:51:54.346Z,25.35
2018-07-17T09:55:18.982Z,25.44
2018-07-17T09:58:43.647Z,25.93
2018-07-17T10:02:13.692Z,25.92
2018-07-17T10:05:38.510Z,26.30
2018-07-17T10:09:02.954Z,26.59
2018-07-17T10:12:27.636Z,26.61
2018-07-17T10:17:16.730Z,26.64
2018-07-17T10:20:41.384Z,26.72
2018-07-17T10:24:06.078Z,26.51
2018-07-17T10:27:30.386Z,26.55
2018-07-17T10:30:56.468Z,26.70
2018-07-17T10:34:21.206Z,26.57
2018-07-17T10:37:46.681Z,27.13
2018-07-17T10:41:11.299Z,27.12
2018-07-17T10:44:36.591Z,27.59
2018-07-17T10:48:01.890Z,27.21
2018-07-17T10:51:26.974Z,27.21
2018-07-17T10:54:53.125Z,27.33
2018-07-17T10:58:18.179Z,26.96
2018-07-17T11:01:43.138Z,27.43
2018-07-17T11:05:08.925Z,27.87
2018-07-17T11:08:34.186Z,27.69
2018-07-17T11:12:00.187Z,28.39
2018-07-17T11:15:24.974Z,28.57
2018-07-17T11:18:49.844Z,28.39
2018-07-17T11:22:14.514Z,27.77
2018-07-17T11:25:39.269Z,28.44
2018-07-17T11:29:04.008Z,28.81
2018-07-17T11:32:28.738Z,28.26
2018-07-17T11:35:53.436Z,27.82
2018-07-17T11:39:18.135Z,28.30
2018-07-17T11:42:43.346Z,28.75
2018-07-17T11:46:07.997Z,28.59
2018-07-17T11:49:32.694Z,28.32
2018-07-17T11:52:57.408Z,28.09
2018-07-17T11:56:22.144Z,27.83
2018-07-17T11:59:46.508Z,27.63
2018-07-17T12:03:10.893Z,27.92
2018-07-17T12:06:35.488Z,28.42
2018-07-17T12:10:00.142Z,28.30
2018-07-17T12:13:24.819Z,28.35
2018-07-17T12:16:49.461Z,27.73
2018-07-17T12:20:14.203Z,27.48
2018-07-17T12:23:38.824Z,27.37
2018-07-17T12:27:03.514Z,26.84
2018-07-17T12:30:28.144Z,26.76
2018-07-17T12:33:52.789Z,26.65
2018-07-17T12:37:17.435Z,26.90
2018-07-17T12:40:42.132Z,27.31
2018-07-17T12:44:06.529Z,27.15
2018-07-17T12:47:31.201Z,27.04
2018-07-17T12:50:55.825Z,27.03
2018-07-17T12:54:20.137Z,27.06
2018-07-17T12:57:44.994Z,27.45
2018-07-17T13:01:09.333Z,27.31
2018-07-17T13:04:34.001Z,27.76
2018-07-17T13:07:58.621Z,28.98
2018-07-17T13:11:23.318Z,28.31
2018-07-17T13:14:48.074Z,27.75
2018-07-17T13:18:14.024Z,28.01
2018-07-17T13:21:39.736Z,28.02
2018-07-17T13:25:05.052Z,27.95
2018-07-17T13:28:29.356Z,27.68
2018-07-17T13:31:54.810Z,27.49
2018-07-17T13:35:19.831Z,27.22
2018-07-17T13:38:44.696Z,27.12
2018-07-17T13:42:09.679Z,26.69
2018-07-17T13:45:33.980Z,26.25
2018-07-17T13:48:58.662Z,25.98
2018-07-17T13:52:23.312Z,25.94
2018-07-17T13:55:47.982Z,26.01
2018-07-17T13:59:12.605Z,25.72
2018-07-17T14:02:36.926Z,25.77
2018-07-17T14:06:01.535Z,25.48
2018-07-17T14:09:26.288Z,24.98
2018-07-17T14:12:51.101Z,24.67
2018-07-17T14:16:21.089Z,24.26
2018-07-17T14:19:46.172Z,24.68
2018-07-17T14:23:11.541Z,25.02
2018-07-17T14:26:36.364Z,25.07
2018-07-17T14:30:01.416Z,25.26
2018-07-17T14:38:47.204Z,25.95
2018-07-17T14:42:11.758Z,26.88
2018-07-17T14:45:36.932Z,27.31
2018-07-17T14:49:02.661Z,27.33
2018-07-17T14:52:27.417Z,27.32
2018-07-17T14:55:52.125Z,28.01
2018-07-17T14:59:16.907Z,28.92
2018-07-17T15:02:42.016Z,28.58
2018-07-17T15:06:06.850Z,29.00
2018-07-17T15:09:31.696Z,29.54
2018-07-17T15:12:56.367Z,29.61
2018-07-17T15:16:21.143Z,29.53
2018-07-17T15:19:46.325Z,29.26
2018-07-17T15:23:11.155Z,28.56
2018-07-17T15:26:35.997Z,28.20
2018-07-17T15:30:00.923Z,27.72
2018-07-17T15:33:25.642Z,28.00
2018-07-17T15:36:50.409Z,27.93
2018-07-17T15:40:15.087Z,28.60
2018-07-17T15:43:39.845Z,27.92
2018-07-17T15:47:04.688Z,28.58
2018-07-17T15:50:29.566Z,29.99
2018-07-17T15:53:54.296Z,30.16
2018-07-17T15:57:20.114Z,29.12
2018-07-17T16:00:44.428Z,29.78
2018-07-17T16:04:09.295Z,30.45
2018-07-17T16:07:34.894Z,31.12
2018-07-17T16:10:59.567Z,31.31
2018-07-17T16:14:24.287Z,31.02
2018-07-17T16:17:48.357Z,30.54
2018-07-17T16:21:13.644Z,29.61
2018-07-17T16:24:39.615Z,30.41
2018-07-17T16:28:04.604Z,31.12
2018-07-17T16:31:31.068Z,30.61
2018-07-17T16:34:55.903Z,30.48
2018-07-17T16:38:20.645Z,30.02
2018-07-17T16:41:45.672Z,29.70
2018-07-17T16:45:10.446Z,29.69
2018-07-17T16:48:35.345Z,29.53
2018-07-17T16:52:00.103Z,29.31
2018-07-17T16:55:25.592Z,29.00
2018-07-17T16:58:50.301Z,28.73
2018-07-17T17:02:15.179Z,29.11
2018-07-17T17:05:39.957Z,28.71
2018-07-17T17:09:05.726Z,28.57
2018-07-17T17:12:30.472Z,28.62
2018-07-17T17:15:54.823Z,28.26
2018-07-17T17:19:19.479Z,28.93
2018-07-17T17:22:44.228Z,29.08
2018-07-17T17:26:08.578Z,29.30
2018-07-17T17:29:32.972Z,28.73
2018-07-17T17:32:57.821Z,29.42
2018-07-17T17:36:22.570Z,28.82
2018-07-17T17:39:47.221Z,28.72
2018-07-17T17:43:11.871Z,28.86
2018-07-17T17:46:37.103Z,28.22
2018-07-17T17:50:01.918Z,28.12
2018-07-17T17:53:26.210Z,27.77
2018-07-17T17:56:50.946Z,28.28
2018-07-17T18:00:15.746Z,28.69
2018-07-17T18:03:41.428Z,28.01
2018-07-17T18:07:06.207Z,28.17
2018-07-17T18:10:31.035Z,27.80
2018-07-17T18:13:55.695Z,27.64
2018-07-17T18:17:20.423Z,27.10
2018-07-17T18:20:45.101Z,26.63
2018-07-17T18:24:09.830Z,26.65
2018-07-17T18:27:34.181Z,26.07
2018-07-17T18:30:58.997Z,25.65
2018-07-17T18:34:23.390Z,25.21
2018-07-17T18:37:48.177Z,25.00
2018-07-17T18:41:12.859Z,24.78
2018-07-17T18:44:37.519Z,24.58
2018-07-17T18:48:01.903Z,24.55
2018-07-17T18:51:26.262Z,24.50
2018-07-17T18:54:51.027Z,24.42
2018-07-17T18:58:16.473Z,24.48
2018-07-17T19:01:41.241Z,24.38
2018-07-17T19:05:06.051Z,24.17
2018-07-17T19:08:30.859Z,24.04
2018-07-17T19:11:58.291Z,23.99
2018-07-17T19:15:23.103Z,24.08
2018-07-17T19:18:47.937Z,23.81
2018-07-17T19:22:12.730Z,23.88
2018-07-17T19:25:38.836Z,23.80
2018-07-17T19:29:03.327Z,23.63
2018-07-17T19:32:28.217Z,23.78
2018-07-17T19:35:52.948Z,23.89
2018-07-17T19:39:17.704Z,23.95
2018-07-17T19:42:42.507Z,23.57
2018-07-17T19:46:07.408Z,23.42
2018-07-17T19:49:32.174Z,23.32
2018-07-17T19:52:56.862Z,23.26
2018-07-17T19:56:21.536Z,23.41
2018-07-17T19:59:46.251Z,23.18
2018-07-17T20:03:10.959Z,23.29
2018-07-17T20:06:35.659Z,23.22
2018-07-17T20:10:00.384Z,23.15
2018-07-17T20:13:25.115Z,23.00
2018-07-17T20:16:49.884Z,22.65
2018-07-17T20:20:14.829Z,22.83
2018-07-17T20:23:39.584Z,22.78
2018-07-17T20:27:05.343Z,22.51
2018-07-17T20:30:30.153Z,22.92
2018-07-17T20:33:54.938Z,22.55
2018-07-17T20:37:19.616Z,22.69
2018-07-17T20:40:44.361Z,22.56
2018-07-17T20:44:09.107Z,22.34
2018-07-17T20:47:33.985Z,22.38
2018-07-17T20:50:59.604Z,22.38
2018-07-17T20:54:24.287Z,22.38
2018-07-17T20:57:48.601Z,22.14
2018-07-17T21:01:13.405Z,22.25
2018-07-17T21:04:38.638Z,22.43
2018-07-17T21:08:04.618Z,22.23
2018-07-17T21:11:30.628Z,22.34
2018-07-17T21:14:55.282Z,22.35
2018-07-17T21:18:20.169Z,22.34
2018-07-17T21:21:45.721Z,22.30
2018-07-17T21:25:16.247Z,22.44
2018-07-17T21:28:41.203Z,22.17
2018-07-17T21:32:06.103Z,22.30
2018-07-17T21:35:32.352Z,22.46
2018-07-17T21:38:56.999Z,22.27
2018-07-17T21:42:21.780Z,22.44
2018-07-17T21:45:46.891Z,22.41
2018-07-17T21:49:11.759Z,22.50
2018-07-17T21:52:36.604Z,22.60
2018-07-17T21:56:04.531Z,22.23
2018-07-17T21:59:29.258Z,22.06
2018-07-17T22:02:54.005Z,21.59
2018-07-17T22:06:19.727Z,21.47
2018-07-17T22:09:46.010Z,20.74
2018-07-17T22:13:11.741Z,20.64
2018-07-17T22:16:36.773Z,20.85
2018-07-17T22:20:01.729Z,20.43
2018-07-17T22:23:26.424Z,20.53
2018-07-17T22:26:51.143Z,20.49
2018-07-17T22:30:15.906Z,20.30
2018-07-17T22:33:40.543Z,20.47
2018-07-17T22:37:05.322Z,20.24
2018-07-17T22:40:30.950Z,20.40
2018-07-17T22:43:55.703Z,20.21
2018-07-17T22:47:20.448Z,20.26
2018-07-17T22:50:45.228Z,19.96
2018-07-17T22:54:09.900Z,20.20
2018-07-17T22:57:34.536Z,19.95
2018-07-17T23:00:59.220Z,20.04
2018-07-17T23:04:24.152Z,19.75
2018-07-17T23:07:48.935Z,19.90
2018-07-17T23:11:13.654Z,20.15
2018-07-17T23:14:38.362Z,20.12
2018-07-17T23:18:03.063Z,19.94
2018-07-17T23:21:27.682Z,20.29
2018-07-17T23:26:16.799Z,19.73
2018-07-17T23:29:41.477Z,19.80
2018-07-17T23:33:06.157Z,19.52
2018-07-17T23:36:30.925Z,19.17
2018-07-17T23:39:55.769Z,19.66
2018-07-17T23:43:20.449Z,19.70
2018-07-17T23:46:45.192Z,19.69
2018-07-17T23:50:10.157Z,19.33
2018-07-17T23:53:34.836Z,19.16
2018-07-17T23:57:00.147Z,19.37
